createdAt,value
2018-07-07T00:00:23.529Z,99.90
2018-07-07T00:02:52.034Z,99.90
2018-07-07T00:05:21.364Z,99.90
2018-07-07T00:07:49.828Z,99.90
2018-07-07T00:10:18.281Z,99.90
2018-07-07T00:12:46.786Z,99.90
2018-07-07T00:15:17.444Z,99.90
2018-07-07T00:17:46.465Z,99.90
2018-07-07T00:20:15.324Z,99.90
2018-07-07T00:22:43.778Z,99.90
2018-07-07T00:25:13.765Z,99.90
2018-07-07T00:27:42.528Z,99.90
2018-07-07T00:30:10.969Z,99.90
2018-07-07T00:32:39.469Z,99.90
2018-07-07T00:35:08.081Z,99.90
2018-07-07T00:37:36.588Z,99.90
2018-07-07T00:40:05.960Z,99.90
2018-07-07T00:42:34.460Z,99.90
2018-07-07T00:45:02.997Z,99.90
2018-07-07T00:47:31.566Z,99.90
2018-07-07T00:50:00.357Z,99.90
2018-07-07T00:52:28.926Z,99.90
2018-07-07T00:54:57.443Z,99.90
2018-07-07T00:57:25.908Z,99.90
2018-07-07T00:59:54.325Z,99.90
2018-07-07T01:02:23.804Z,99.90
2018-07-07T01:04:53.490Z,99.90
2018-07-07T01:07:22.597Z,99.90
2018-07-07T01:09:51.080Z,99.90
2018-07-07T01:12:19.555Z,99.90
2018-07-07T01:14:48.472Z,99.90
2018-07-07T01:17:16.967Z,99.90
2018-07-07T01:19:45.441Z,99.90
2018-07-07T01:22:14.384Z,99.90
2018-07-07T01:24:43.299Z,99.90
2018-07-07T01:27:11.717Z,99.90
2018-07-07T01:29:41.041Z,99.90
2018-07-07T01:32:09.851Z,99.90
2018-07-07T01:34:38.300Z,99.90
2018-07-07T01:37:06.889Z,99.90
2018-07-07T01:39:35.374Z,99.90
2018-07-07T01:42:03.844Z,99.90
2018-07-07T01:44:32.307Z,99.90
2018-07-07T01:47:00.944Z,99.90
2018-07-07T01:49:29.373Z,99.90
2018-07-07T01:51:57.854Z,99.90
2018-07-07T01:54:26.318Z,99.90
2018-07-07T01:56:54.790Z,99.90
2018-07-07T01:59:23.231Z,99.90
2018-07-07T02:01:51.664Z,99.90
2018-07-07T02:04:20.468Z,99.90
2018-07-07T02:06:48.886Z,99.90
2018-07-07T02:11:45.460Z,99.90
2018-07-07T02:14:14.089Z,99.90
2018-07-07T02:16:42.596Z,99.90
2018-07-07T02:19:11.026Z,99.90
2018-07-07T02:21:39.437Z,99.90
2018-07-07T02:24:07.917Z,99.90
2018-07-07T02:26:36.397Z,99.90
2018-07-07T02:29:04.841Z,99.90
2018-07-07T02:31:33.320Z,99.90
2018-07-07T02:34:01.760Z,99.90
2018-07-07T02:36:30.360Z,99.90
2018-07-07T02:38:58.805Z,99.90
2018-07-07T02:41:27.301Z,99.90
2018-07-07T02:43:55.799Z,99.90
2018-07-07T02:46:24.433Z,99.90
2018-07-07T02:48:52.712Z,99.90
2018-07-07T02:51:21.151Z,99.90
2018-07-07T02:53:49.617Z,99.90
2018-07-07T02:56:18.113Z,99.90
2018-07-07T02:58:46.632Z,99.90
2018-07-07T03:01:15.090Z,99.90
2018-07-07T03:03:43.526Z,99.90
2018-07-07T03:06:11.977Z,99.90
2018-07-07T03:08:40.412Z,99.90
2018-07-07T03:11:08.894Z,99.90
2018-07-07T03:13:37.480Z,99.90
2018-07-07T03:16:06.064Z,99.90
2018-07-07T03:18:34.488Z,99.90
2018-07-07T03:23:31.079Z,99.90
2018-07-07T03:25:59.499Z,99.90
2018-07-07T03:28:28.265Z,99.90
2018-07-07T03:30:56.721Z,99.90
2018-07-07T03:33:25.175Z,99.90
2018-07-07T03:35:53.631Z,99.90
2018-07-07T03:38:22.062Z,99.90
2018-07-07T03:40:50.461Z,99.90
2018-07-07T03:43:18.896Z,99.90
2018-07-07T03:45:47.340Z,99.90
2018-07-07T03:48:15.772Z,99.90
2018-07-07T03:50:44.465Z,99.90
2018-07-07T03:53:12.929Z,99.90
2018-07-07T03:55:41.402Z,99.90
2018-07-07T03:58:09.842Z,99.90
2018-07-07T04:00:38.294Z,99.90
2018-07-07T04:03:06.764Z,99.90
2018-07-07T04:05:35.204Z,99.90
2018-07-07T04:08:03.665Z,99.90
2018-07-07T04:13:00.229Z,99.90
2018-07-07T04:15:28.697Z,99.90
2018-07-07T04:17:57.141Z,99.90
2018-07-07T04:20:25.633Z,99.90
2018-07-07T04:22:54.093Z,99.90
2018-07-07T04:25:22.559Z,99.90
2018-07-07T04:27:50.991Z,99.90
2018-07-07T04:30:19.396Z,99.90
2018-07-07T04:32:47.829Z,99.90
2018-07-07T04:35:16.298Z,99.90
2018-07-07T04:37:44.713Z,99.90
2018-07-07T04:40:13.199Z,99.90
2018-07-07T04:42:41.628Z,99.90
2018-07-07T04:45:10.109Z,99.90
2018-07-07T04:47:38.573Z,99.90
2018-07-07T04:50:07.038Z,99.90
2018-07-07T04:52:35.472Z,99.90
2018-07-07T04:55:04.005Z,99.90
2018-07-07T04:57:32.460Z,99.90
2018-07-07T05:00:00.860Z,99.90
2018-07-07T05:02:29.308Z,99.90
2018-07-07T05:04:57.721Z,99.90
2018-07-07T05:07:26.167Z,99.90
2018-07-07T05:09:54.618Z,99.90
2018-07-07T05:12:23.045Z,99.90
2018-07-07T05:14:51.477Z,99.90
2018-07-07T05:17:19.938Z,99.90
2018-07-07T05:19:48.363Z,99.90
2018-07-07T05:22:16.799Z,99.90
2018-07-07T05:24:45.261Z,99.90
2018-07-07T05:27:13.695Z,99.90
2018-07-07T05:29:42.177Z,99.90
2018-07-07T05:32:10.712Z,99.90
2018-07-07T05:34:39.116Z,99.90
2018-07-07T05:37:07.620Z,99.90
2018-07-07T05:39:36.006Z,99.90
2018-07-07T05:42:04.889Z,99.90
2018-07-07T05:44:33.412Z,99.90
2018-07-07T05:47:01.860Z,99.90
2018-07-07T05:49:30.272Z,99.90
2018-07-07T05:51:58.753Z,99.90
2018-07-07T05:54:27.162Z,99.90
2018-07-07T05:56:55.592Z,99.90
2018-07-07T05:59:24.052Z,99.90
2018-07-07T06:01:52.494Z,99.90
2018-07-07T06:04:20.927Z,99.90
2018-07-07T06:06:49.486Z,99.90
2018-07-07T06:09:17.974Z,99.90
2018-07-07T06:11:46.423Z,99.90
2018-07-07T06:14:14.902Z,99.90
2018-07-07T06:16:43.349Z,99.90
2018-07-07T06:19:11.823Z,99.90
2018-07-07T06:21:40.301Z,98.40
2018-07-07T06:24:08.805Z,92.30
2018-07-07T06:26:37.256Z,87.60
2018-07-07T06:29:06.222Z,90.50
2018-07-07T06:31:34.661Z,91.50
2018-07-07T06:34:03.133Z,84.40
2018-07-07T06:36:31.641Z,91.80
2018-07-07T06:39:00.062Z,90.20
2018-07-07T06:41:28.536Z,93.50
2018-07-07T06:43:57.028Z,92.90
2018-07-07T06:46:25.465Z,94.90
2018-07-07T06:48:53.889Z,94.70
2018-07-07T06:51:22.381Z,91.00
2018-07-07T06:53:50.913Z,80.30
2018-07-07T06:56:19.322Z,77.20
2018-07-07T06:58:47.825Z,74.80
2018-07-07T07:01:16.257Z,77.00
2018-07-07T07:03:44.706Z,78.10
2018-07-07T07:06:13.213Z,77.00
2018-07-07T07:08:41.672Z,83.20
2018-07-07T07:11:10.133Z,87.60
2018-07-07T07:13:38.594Z,91.60
2018-07-07T07:16:07.121Z,83.90
2018-07-07T07:18:35.604Z,81.30
2018-07-07T07:21:04.144Z,68.50
2018-07-07T07:23:32.638Z,62.80
2018-07-07T07:26:01.137Z,56.00
2018-07-07T07:28:29.551Z,54.40
2018-07-07T07:30:58.079Z,53.50
2018-07-07T07:33:26.584Z,50.30
2018-07-07T07:35:55.473Z,51.50
2018-07-07T07:38:24.211Z,51.10
2018-07-07T07:40:52.710Z,50.50
2018-07-07T07:43:21.141Z,51.90
2018-07-07T07:45:49.601Z,53.10
2018-07-07T07:48:18.043Z,49.20
2018-07-07T07:50:46.509Z,47.30
2018-07-07T07:53:15.032Z,48.50
2018-07-07T07:55:43.499Z,45.20
2018-07-07T07:58:11.945Z,46.10
2018-07-07T08:00:40.418Z,45.60
2018-07-07T08:03:08.909Z,44.80
2018-07-07T08:05:37.371Z,40.40
2018-07-07T08:08:06.003Z,40.30
2018-07-07T08:10:34.489Z,34.60
2018-07-07T08:13:02.946Z,32.80
2018-07-07T08:15:31.380Z,31.20
2018-07-07T08:17:59.901Z,34.20
2018-07-07T08:20:28.345Z,34.40
2018-07-07T08:25:24.993Z,31.70
2018-07-07T08:27:53.477Z,34.10
2018-07-07T08:30:21.925Z,33.30
2018-07-07T08:32:50.401Z,29.90
2018-07-07T08:35:18.990Z,28.60
2018-07-07T08:37:47.462Z,29.90
2018-07-07T08:40:15.940Z,30.00
2018-07-07T08:42:44.671Z,29.60
2018-07-07T08:47:41.237Z,30.20
2018-07-07T08:50:09.748Z,29.80
2018-07-07T08:52:38.187Z,29.20
2018-07-07T08:55:06.674Z,29.10
2018-07-07T08:57:35.145Z,28.60
2018-07-07T09:00:03.685Z,31.70
2018-07-07T09:02:32.121Z,33.00
2018-07-07T09:05:00.589Z,32.50
2018-07-07T09:07:29.225Z,33.80
2018-07-07T09:09:57.689Z,32.60
2018-07-07T09:12:26.158Z,32.60
2018-07-07T09:14:54.680Z,33.80
2018-07-07T09:19:51.281Z,32.40
2018-07-07T09:22:19.730Z,31.40
2018-07-07T09:24:48.229Z,29.90
2018-07-07T09:27:16.672Z,29.10
2018-07-07T09:29:45.123Z,29.10
2018-07-07T09:32:13.572Z,29.60
2018-07-07T09:34:42.064Z,28.80
2018-07-07T09:37:10.544Z,28.80
2018-07-07T09:39:38.997Z,28.60
2018-07-07T09:42:07.425Z,30.00
2018-07-07T09:44:35.856Z,28.50
2018-07-07T09:47:04.349Z,28.20
2018-07-07T09:49:32.791Z,27.80
2018-07-07T09:52:01.265Z,27.30
2018-07-07T09:54:29.732Z,28.10
2018-07-07T09:56:58.181Z,27.90
2018-07-07T09:59:26.609Z,27.60
2018-07-07T10:01:55.166Z,26.40
2018-07-07T10:04:23.574Z,26.40
2018-07-07T10:06:52.027Z,26.30
2018-07-07T10:09:20.551Z,27.90
2018-07-07T10:11:49.010Z,26.40
2018-07-07T10:14:17.449Z,25.00
2018-07-07T10:16:45.909Z,25.70
2018-07-07T10:19:14.393Z,25.50
2018-07-07T10:21:42.885Z,27.00
2018-07-07T10:24:11.356Z,25.50
2018-07-07T10:26:39.824Z,24.70
2018-07-07T10:29:08.290Z,24.70
2018-07-07T10:31:36.761Z,26.00
2018-07-07T10:34:05.330Z,26.10
2018-07-07T10:36:33.782Z,26.90
2018-07-07T10:39:02.310Z,24.80
2018-07-07T10:41:30.750Z,25.10
2018-07-07T10:43:59.213Z,24.30
2018-07-07T10:46:27.650Z,24.80
2018-07-07T10:48:56.168Z,25.20
2018-07-07T10:51:24.641Z,25.00
2018-07-07T10:53:53.085Z,26.40
2018-07-07T10:56:21.569Z,25.70
2018-07-07T10:58:50.137Z,25.20
2018-07-07T11:01:18.576Z,25.20
2018-07-07T11:03:47.060Z,24.40
2018-07-07T11:06:15.555Z,22.70
2018-07-07T11:08:44.385Z,21.80
2018-07-07T11:11:12.830Z,21.60
2018-07-07T11:13:41.263Z,22.80
2018-07-07T11:16:09.712Z,22.30
2018-07-07T11:18:38.152Z,22.00
2018-07-07T11:21:06.652Z,21.70
2018-07-07T11:23:35.126Z,20.60
2018-07-07T11:26:03.645Z,23.00
2018-07-07T11:28:32.118Z,23.50
2018-07-07T11:31:00.570Z,24.20
2018-07-07T11:33:28.985Z,23.90
2018-07-07T11:35:57.536Z,23.30
2018-07-07T11:38:25.992Z,22.80
2018-07-07T11:40:54.540Z,22.50
2018-07-07T11:43:23.020Z,23.10
2018-07-07T11:45:51.534Z,24.30
2018-07-07T11:48:20.034Z,24.00
2018-07-07T11:50:48.466Z,25.10
2018-07-07T11:53:16.972Z,25.10
2018-07-07T11:55:45.450Z,24.10
2018-07-07T12:00:42.090Z,24.70
2018-07-07T12:03:17.264Z,23.20
2018-07-07T12:05:45.738Z,24.60
2018-07-07T12:08:14.469Z,24.30
2018-07-07T12:10:42.769Z,23.20
2018-07-07T12:13:11.234Z,23.20
2018-07-07T12:15:39.688Z,23.90
2018-07-07T12:18:08.187Z,24.00
2018-07-07T12:20:36.645Z,24.80
2018-07-07T12:23:05.147Z,24.00
2018-07-07T12:25:33.582Z,23.70
2018-07-07T12:28:02.057Z,24.10
2018-07-07T12:30:30.552Z,25.60
2018-07-07T12:32:59.098Z,24.90
2018-07-07T12:35:27.593Z,24.70
2018-07-07T12:37:56.040Z,25.10
2018-07-07T12:40:24.549Z,25.30
2018-07-07T12:42:53.055Z,26.10
2018-07-07T12:45:21.535Z,26.70
2018-07-07T12:47:49.967Z,25.80
2018-07-07T12:50:18.441Z,25.90
2018-07-07T12:52:46.900Z,25.70
2018-07-07T12:55:15.364Z,25.80
2018-07-07T12:57:43.822Z,24.40
2018-07-07T13:00:12.294Z,25.20
2018-07-07T13:02:40.738Z,25.80
2018-07-07T13:05:09.260Z,25.70
2018-07-07T13:07:37.724Z,26.30
2018-07-07T13:10:06.246Z,26.40
2018-07-07T13:12:34.716Z,26.80
2018-07-07T13:15:03.269Z,27.20
2018-07-07T13:17:31.718Z,27.80
2018-07-07T13:20:00.150Z,28.90
2018-07-07T13:22:28.616Z,28.70
2018-07-07T13:24:57.064Z,27.50
2018-07-07T13:27:25.519Z,28.50
2018-07-07T13:32:22.160Z,29.40
2018-07-07T13:34:50.612Z,28.30
2018-07-07T13:37:19.104Z,28.40
2018-07-07T13:39:47.647Z,29.30
2018-07-07T13:42:16.150Z,28.40
2018-07-07T13:44:44.602Z,28.00
2018-07-07T13:47:13.067Z,27.70
2018-07-07T13:49:41.568Z,29.40
2018-07-07T13:52:10.042Z,29.00
2018-07-07T13:54:38.537Z,29.70
2018-07-07T13:57:07.285Z,30.00
2018-07-07T13:59:35.789Z,29.60
2018-07-07T14:02:04.245Z,29.30
2018-07-07T14:04:32.701Z,30.00
2018-07-07T14:07:01.196Z,29.60
2018-07-07T14:09:29.710Z,30.00
2018-07-07T14:11:58.181Z,31.50
2018-07-07T14:14:26.670Z,31.10
2018-07-07T14:16:55.239Z,31.50
2018-07-07T14:19:23.664Z,33.00
2018-07-07T14:21:52.138Z,31.00
2018-07-07T14:24:20.602Z,31.00
2018-07-07T14:26:49.086Z,31.40
2018-07-07T14:29:17.560Z,31.90
2018-07-07T14:31:46.054Z,30.80
2018-07-07T14:34:14.518Z,30.60
2018-07-07T14:36:42.993Z,33.50
2018-07-07T14:39:11.459Z,31.90
2018-07-07T14:41:39.897Z,31.30
2018-07-07T14:44:08.342Z,31.80
2018-07-07T14:46:36.796Z,32.40
2018-07-07T14:49:05.617Z,32.20
2018-07-07T14:51:34.104Z,32.70
2018-07-07T14:54:02.578Z,34.50
2018-07-07T14:56:31.123Z,32.70
2018-07-07T14:58:59.570Z,34.30
2018-07-07T15:01:28.023Z,34.70
2018-07-07T15:04:00.677Z,34.70
2018-07-07T15:06:29.238Z,34.90
2018-07-07T15:08:57.711Z,36.00
2018-07-07T15:11:26.167Z,34.00
2018-07-07T15:13:54.670Z,34.10
2018-07-07T15:16:23.118Z,33.80
2018-07-07T15:18:51.648Z,35.90
2018-07-07T15:21:20.132Z,36.30
2018-07-07T15:23:48.700Z,36.70
2018-07-07T15:26:17.152Z,36.40
2018-07-07T15:28:45.615Z,36.50
2018-07-07T15:31:14.077Z,37.40
2018-07-07T15:33:43.421Z,37.40
2018-07-07T15:36:11.853Z,37.50
2018-07-07T15:38:40.313Z,38.20
2018-07-07T15:41:08.753Z,38.30
2018-07-07T15:43:37.264Z,38.90
2018-07-07T15:46:05.808Z,39.90
2018-07-07T15:51:02.379Z,39.70
2018-07-07T15:53:30.822Z,41.00
2018-07-07T15:55:59.322Z,41.90
2018-07-07T15:58:27.769Z,41.80
2018-07-07T16:00:56.259Z,41.50
2018-07-07T16:03:24.719Z,42.10
2018-07-07T16:05:53.501Z,42.00
2018-07-07T16:08:21.949Z,42.50
2018-07-07T16:10:50.526Z,43.60
2018-07-07T16:13:18.948Z,43.90
2018-07-07T16:15:47.393Z,44.00
2018-07-07T16:18:15.809Z,44.20
2018-07-07T16:20:44.285Z,44.00
2018-07-07T16:23:12.709Z,43.70
2018-07-07T16:25:41.146Z,43.90
2018-07-07T16:28:09.602Z,44.10
2018-07-07T16:30:38.018Z,45.30
2018-07-07T16:33:06.488Z,45.80
2018-07-07T16:35:34.938Z,46.10
2018-07-07T16:38:03.433Z,45.20
2018-07-07T16:40:32.684Z,45.50
2018-07-07T16:43:01.183Z,45.50
2018-07-07T16:45:29.702Z,45.00
2018-07-07T16:47:58.226Z,44.10
2018-07-07T16:50:26.953Z,45.60
2018-07-07T16:52:55.495Z,45.90
2018-07-07T16:55:24.020Z,45.80
2018-07-07T16:57:52.633Z,45.70
2018-07-07T17:00:21.131Z,46.50
2018-07-07T17:02:50.417Z,46.70
2018-07-07T17:05:18.888Z,47.10
2018-07-07T17:07:48.281Z,46.60
2018-07-07T17:10:17.360Z,47.60
2018-07-07T17:12:45.864Z,47.60
2018-07-07T17:15:14.337Z,47.40
2018-07-07T17:17:42.869Z,48.20
2018-07-07T17:20:11.401Z,49.50
2018-07-07T17:22:39.916Z,48.90
2018-07-07T17:25:08.429Z,49.80
2018-07-07T17:40:52.468Z,52.70
2018-07-07T17:43:20.997Z,51.30
2018-07-07T17:45:50.900Z,52.90
2018-07-07T17:48:19.442Z,52.00
2018-07-07T17:50:47.994Z,51.90
2018-07-07T17:53:17.301Z,52.20
2018-07-07T17:55:45.840Z,52.30
2018-07-07T17:58:14.325Z,51.40
2018-07-07T18:00:43.500Z,52.50
2018-07-07T18:03:12.058Z,52.50
2018-07-07T18:05:40.836Z,52.80
2018-07-07T18:08:09.346Z,53.90
2018-07-07T18:10:38.222Z,53.70
2018-07-07T18:13:07.085Z,54.60
2018-07-07T18:15:35.650Z,55.10
2018-07-07T18:18:04.137Z,54.80
2018-07-07T18:20:32.693Z,54.90
2018-07-07T18:23:01.190Z,54.60
2018-07-07T18:25:29.633Z,55.10
2018-07-07T18:27:58.070Z,54.80
2018-07-07T18:30:26.568Z,54.70
2018-07-07T18:32:55.138Z,54.70
2018-07-07T18:35:23.811Z,56.20
2018-07-07T18:37:52.331Z,57.40
2018-07-07T18:40:20.776Z,56.60
2018-07-07T18:42:49.273Z,57.60
2018-07-07T18:45:17.742Z,56.90
2018-07-07T18:47:46.245Z,57.00
2018-07-07T18:50:14.751Z,58.40
2018-07-07T18:52:43.268Z,58.30
2018-07-07T18:55:11.742Z,59.70
2018-07-07T18:57:40.253Z,60.40
2018-07-07T19:02:37.174Z,61.30
2018-07-07T19:05:05.678Z,62.50
2018-07-07T19:07:34.165Z,62.50
2018-07-07T19:10:02.644Z,64.00
2018-07-07T19:12:31.106Z,64.60
2018-07-07T19:15:05.239Z,65.20
2018-07-07T19:17:33.982Z,67.20
2018-07-07T19:20:02.484Z,68.40
2018-07-07T19:22:36.265Z,68.60
2018-07-07T19:25:10.210Z,69.20
2018-07-07T19:27:38.670Z,69.20
2018-07-07T19:30:07.194Z,69.10
2018-07-07T19:33:41.841Z,69.50
2018-07-07T19:36:15.840Z,69.80
2018-07-07T19:38:44.959Z,70.70
2018-07-07T19:41:13.521Z,72.30
2018-07-07T19:43:42.037Z,73.70
2018-07-07T19:46:10.568Z,71.30
2018-07-07T19:48:39.134Z,73.60
2018-07-07T19:51:07.729Z,71.90
2018-07-07T19:53:36.248Z,75.30
2018-07-07T19:56:04.741Z,75.30
2018-07-07T19:58:33.246Z,73.90
2018-07-07T20:01:01.742Z,75.40
2018-07-07T20:03:30.269Z,76.10
2018-07-07T20:05:58.755Z,78.60
2018-07-07T20:08:27.288Z,80.60
2018-07-07T20:10:55.786Z,83.70
2018-07-07T20:13:24.421Z,83.50
2018-07-07T20:16:14.332Z,86.20
2018-07-07T20:19:11.177Z,89.30
2018-07-07T20:22:00.489Z,88.60
2018-07-07T20:24:33.016Z,90.30
2018-07-07T20:27:06.773Z,90.50
2018-07-07T20:29:35.253Z,88.20
2018-07-07T20:32:08.071Z,90.90
2018-07-07T20:34:36.696Z,91.20
2018-07-07T20:37:05.318Z,91.60
2018-07-07T20:39:33.946Z,94.50
2018-07-07T20:42:02.489Z,91.60
2018-07-07T20:44:31.013Z,90.80
2018-07-07T20:46:59.488Z,93.30
2018-07-07T20:49:28.119Z,92.40
2018-07-07T20:51:56.937Z,91.30
2018-07-07T20:56:53.604Z,94.20
2018-07-07T20:59:22.092Z,94.70
2018-07-07T21:01:50.658Z,97.20
2018-07-07T21:04:19.085Z,99.60
2018-07-07T21:06:49.337Z,99.40
2018-07-07T21:09:18.865Z,99.70
2018-07-07T21:11:47.709Z,98.10
2018-07-07T21:14:16.210Z,98.70
2018-07-07T21:16:44.770Z,98.30
2018-07-07T21:19:13.262Z,99.50
2018-07-07T21:21:41.834Z,99.90
2018-07-07T21:24:10.384Z,99.30
2018-07-07T21:26:38.990Z,99.90
2018-07-07T21:29:07.517Z,99.90
2018-07-07T21:31:36.038Z,99.90
2018-07-07T21:34:04.555Z,99.90
2018-07-07T21:36:33.042Z,99.90
2018-07-07T21:39:01.562Z,99.90
2018-07-07T21:41:30.038Z,99.90
2018-07-07T21:43:58.577Z,99.90
2018-07-07T21:46:27.140Z,99.90
2018-07-07T21:48:55.674Z,99.90
2018-07-07T21:51:24.206Z,99.90
2018-07-07T21:53:52.880Z,99.90
2018-07-07T21:56:21.250Z,99.90
2018-07-07T21:58:54.025Z,99.90
2018-07-07T22:01:59.745Z,99.90
2018-07-07T22:04:35.514Z,99.90
2018-07-07T22:07:11.947Z,99.90
2018-07-07T22:09:40.764Z,99.90
2018-07-07T22:12:09.263Z,99.90
2018-07-07T22:14:39.018Z,99.90
2018-07-07T22:17:07.581Z,99.90
2018-07-07T22:19:36.115Z,99.90
2018-07-07T22:22:06.800Z,99.90
2018-07-07T22:24:35.744Z,99.90
2018-07-07T22:27:06.556Z,99.90
2018-07-07T22:29:35.054Z,99.90
2018-07-07T22:32:12.529Z,99.90
2018-07-07T22:34:41.128Z,99.90
2018-07-07T22:37:09.811Z,99.90
2018-07-07T22:39:39.666Z,99.90
2018-07-07T22:42:09.467Z,99.90
2018-07-07T22:44:38.829Z,99.90
2018-07-07T22:47:07.439Z,99.90
2018-07-07T22:49:36.040Z,99.90
2018-07-07T22:52:06.412Z,99.90
2018-07-07T22:54:35.423Z,99.90
2018-07-07T22:57:03.965Z,99.90
2018-07-07T22:59:32.450Z,99.90
2018-07-07T23:02:01.009Z,99.90
2018-07-07T23:04:29.696Z,99.90
2018-07-07T23:06:59.363Z,99.90
2018-07-07T23:09:27.822Z,99.90
2018-07-07T23:11:56.306Z,99.90
2018-07-07T23:14:24.802Z,99.90
2018-07-07T23:16:57.197Z,99.90
2018-07-07T23:19:25.677Z,99.90
2018-07-07T23:21:54.161Z,99.90
2018-07-07T23:24:22.648Z,99.90
2018-07-07T23:26:51.533Z,99.90
2018-07-07T23:29:20.013Z,99.90
2018-07-07T23:31:48.561Z,99.90
2018-07-07T23:34:17.068Z,99.90
2018-07-07T23:36:45.628Z,99.90
2018-07-07T23:39:14.125Z,99.90
2018-07-07T23:41:42.701Z,99.90
2018-07-07T23:44:11.157Z,99.90
2018-07-07T23:46:39.590Z,99.90
2018-07-07T23:49:08.125Z,99.90
2018-07-07T23:51:36.634Z,99.90
2018-07-07T23:54:05.595Z,99.90
2018-07-07T23:56:34.116Z,99.90
2018-07-07T23:59:02.547Z,99.90
